createdAt,value
2019-03-04T00:00:00.853Z,3.30
2019-03-04T00:02:29.651Z,4.77
2019-03-04T00:04:58.437Z,4.90
2019-03-04T00:07:27.219Z,3.77
2019-03-04T00:09:56.003Z,3.13
2019-03-04T00:12:24.779Z,3.60
2019-03-04T00:14:54.169Z,3.80
2019-03-04T00:17:22.989Z,3.40
2019-03-04T00:19:53.183Z,3.30
2019-03-04T00:22:23.324Z,3.27
2019-03-04T00:24:52.191Z,4.07
2019-03-04T00:27:20.988Z,5.00
2019-03-04T00:29:49.804Z,3.13
2019-03-04T00:32:18.635Z,2.90
2019-03-04T00:34:47.398Z,3.63
2019-03-04T00:37:16.206Z,3.57
2019-03-04T00:39:45.050Z,4.53
2019-03-04T00:42:13.873Z,3.50
2019-03-04T00:44:42.650Z,3.23
2019-03-04T00:47:11.439Z,3.50
2019-03-04T00:49:40.282Z,2.93
2019-03-04T00:52:09.057Z,3.13
2019-03-04T00:54:37.991Z,3.30
2019-03-04T00:57:06.742Z,3.80
2019-03-04T00:59:35.533Z,3.07
2019-03-04T01:02:04.345Z,3.23
2019-03-04T01:04:34.042Z,3.17
2019-03-04T01:07:03.142Z,3.33
2019-03-04T01:09:33.489Z,3.20
2019-03-04T01:12:02.748Z,3.20
2019-03-04T01:14:32.183Z,3.93
2019-03-04T01:17:01.188Z,3.47
2019-03-04T01:19:31.079Z,3.40
2019-03-04T01:22:00.407Z,3.50
2019-03-04T01:24:29.705Z,2.90
2019-03-04T01:26:58.511Z,3.30
2019-03-04T01:29:28.291Z,3.57
2019-03-04T01:31:57.131Z,3.33
2019-03-04T01:34:27.919Z,2.90
2019-03-04T01:36:56.707Z,2.57
2019-03-04T01:39:26.136Z,2.77
2019-03-04T01:41:54.980Z,3.13
2019-03-04T01:44:23.777Z,3.30
2019-03-04T01:46:52.571Z,3.00
2019-03-04T01:49:21.370Z,3.23
2019-03-04T01:51:50.200Z,2.30
2019-03-04T01:54:19.957Z,2.67
2019-03-04T01:56:48.761Z,2.97
2019-03-04T01:59:17.572Z,3.10
2019-03-04T02:01:47.357Z,2.93
2019-03-04T02:04:16.125Z,2.80
2019-03-04T02:06:44.930Z,3.27
2019-03-04T02:09:15.458Z,3.27
2019-03-04T02:11:44.238Z,3.07
2019-03-04T02:14:13.034Z,2.80
2019-03-04T02:16:41.932Z,2.47
2019-03-04T02:19:10.701Z,3.10
2019-03-04T02:21:39.747Z,2.50
2019-03-04T02:24:18.064Z,3.10
2019-03-04T02:26:48.115Z,2.50
2019-03-04T02:29:16.885Z,2.73
2019-03-04T02:31:45.671Z,2.37
2019-03-04T02:34:14.431Z,2.57
2019-03-04T02:36:44.314Z,2.57
2019-03-04T02:39:14.016Z,2.60
2019-03-04T02:41:42.790Z,2.70
2019-03-04T02:44:11.586Z,2.70
2019-03-04T02:46:40.359Z,2.07
2019-03-04T02:49:10.104Z,2.23
2019-03-04T02:51:39.367Z,2.03
2019-03-04T02:54:08.183Z,2.13
2019-03-04T02:56:37.033Z,2.03
2019-03-04T02:59:06.010Z,2.03
2019-03-04T03:01:34.774Z,1.80
2019-03-04T03:04:06.397Z,1.90
2019-03-04T03:06:35.286Z,2.00
2019-03-04T03:09:05.032Z,1.87
2019-03-04T03:11:34.262Z,2.20
2019-03-04T03:14:04.760Z,2.40
2019-03-04T03:16:33.865Z,2.03
2019-03-04T03:19:04.491Z,1.87
2019-03-04T03:21:33.270Z,1.67
2019-03-04T03:24:02.043Z,1.50
2019-03-04T03:26:30.868Z,1.77
2019-03-04T03:28:59.645Z,1.77
2019-03-04T03:31:29.047Z,1.50
2019-03-04T03:33:58.734Z,1.60
2019-03-04T03:36:27.633Z,1.70
2019-03-04T03:38:56.423Z,1.47
2019-03-04T03:41:25.905Z,1.80
2019-03-04T03:43:54.688Z,1.80
2019-03-04T03:46:23.513Z,1.90
2019-03-04T03:48:52.315Z,1.70
2019-03-04T03:51:21.810Z,1.47
2019-03-04T03:53:51.537Z,1.20
2019-03-04T03:56:20.316Z,1.50
2019-03-04T03:58:49.091Z,1.80
2019-03-04T04:01:17.884Z,1.30
2019-03-04T04:03:46.656Z,1.30
2019-03-04T04:06:15.459Z,1.60
2019-03-04T04:08:44.256Z,1.20
2019-03-04T04:11:13.029Z,1.27
2019-03-04T04:13:41.847Z,1.27
2019-03-04T04:16:11.248Z,1.20
2019-03-04T04:18:40.635Z,1.47
2019-03-04T04:21:10.503Z,1.50
2019-03-04T04:23:39.539Z,1.33
2019-03-04T04:26:12.708Z,1.47
2019-03-04T04:28:41.539Z,1.30
2019-03-04T04:31:10.340Z,1.70
2019-03-04T04:33:39.130Z,1.20
2019-03-04T04:36:07.914Z,1.70
2019-03-04T04:38:36.813Z,1.47
2019-03-04T04:41:06.622Z,1.83
2019-03-04T04:43:35.422Z,1.70
2019-03-04T04:46:04.867Z,1.60
2019-03-04T04:48:33.650Z,1.83
2019-03-04T04:51:02.442Z,1.87
2019-03-04T04:53:31.223Z,1.80
2019-03-04T04:55:59.988Z,1.50
2019-03-04T04:58:28.751Z,1.50
2019-03-04T05:00:57.532Z,1.40
2019-03-04T05:03:28.145Z,1.70
2019-03-04T05:05:57.612Z,1.77
2019-03-04T05:08:26.401Z,1.50
2019-03-04T05:10:55.217Z,2.37
2019-03-04T05:13:24.089Z,1.80
2019-03-04T05:15:53.531Z,1.47
2019-03-04T05:18:22.375Z,1.73
2019-03-04T05:20:51.169Z,1.40
2019-03-04T05:23:20.840Z,1.77
2019-03-04T05:25:49.706Z,1.60
2019-03-04T05:28:20.250Z,1.90
2019-03-04T05:30:50.627Z,1.77
2019-03-04T05:33:20.091Z,1.90
2019-03-04T05:35:48.884Z,1.50
2019-03-04T05:38:17.678Z,1.60
2019-03-04T05:40:47.463Z,1.33
2019-03-04T05:43:16.772Z,1.60
2019-03-04T05:45:46.071Z,1.40
2019-03-04T05:48:14.880Z,1.70
2019-03-04T05:50:44.311Z,1.70
2019-03-04T05:53:13.088Z,1.50
2019-03-04T05:55:41.942Z,1.90
2019-03-04T05:58:10.789Z,1.60
2019-03-04T06:00:41.605Z,1.63
2019-03-04T06:03:11.655Z,1.30
2019-03-04T06:05:40.451Z,0.93
2019-03-04T06:08:10.031Z,1.00
2019-03-04T06:10:38.905Z,1.30
2019-03-04T06:13:08.250Z,1.47
2019-03-04T06:15:37.135Z,1.40
2019-03-04T06:18:05.953Z,1.47
2019-03-04T06:20:34.733Z,2.73
2019-03-04T06:23:03.505Z,2.40
2019-03-04T06:25:32.291Z,1.50
2019-03-04T06:28:01.098Z,2.13
2019-03-04T06:30:29.874Z,2.00
2019-03-04T06:33:01.659Z,1.10
2019-03-04T06:35:31.077Z,2.13
2019-03-04T06:37:59.924Z,1.60
2019-03-04T06:40:29.417Z,1.40
2019-03-04T06:42:58.737Z,1.63
2019-03-04T06:45:28.091Z,1.30
2019-03-04T06:47:56.871Z,1.47
2019-03-04T06:50:56.878Z,1.27
2019-03-04T06:53:30.006Z,1.60
2019-03-04T06:56:05.298Z,1.83
2019-03-04T06:58:34.264Z,1.50
2019-03-04T07:01:11.220Z,2.00
2019-03-04T07:03:46.947Z,2.03
2019-03-04T07:06:16.053Z,1.50
2019-03-04T07:09:18.265Z,1.83
2019-03-04T07:11:50.200Z,1.87
2019-03-04T07:14:19.007Z,1.90
2019-03-04T07:16:49.712Z,1.20
2019-03-04T07:19:20.760Z,1.23
2019-03-04T07:21:50.624Z,1.20
2019-03-04T07:24:19.401Z,1.63
2019-03-04T07:26:48.443Z,2.13
2019-03-04T07:29:18.575Z,1.47
2019-03-04T07:31:48.584Z,1.90
2019-03-04T07:34:17.375Z,1.97
2019-03-04T07:36:46.815Z,1.60
2019-03-04T07:39:16.510Z,2.03
2019-03-04T07:44:23.752Z,2.03
2019-03-04T07:46:52.519Z,1.63
2019-03-04T07:49:21.428Z,2.00
2019-03-04T07:51:50.868Z,1.80
2019-03-04T07:54:20.563Z,1.83
2019-03-04T07:56:49.410Z,2.23
2019-03-04T07:59:18.200Z,1.77
2019-03-04T08:01:47.906Z,1.27
2019-03-04T08:04:17.646Z,1.87
2019-03-04T08:06:47.056Z,2.23
2019-03-04T08:09:27.135Z,2.03
2019-03-04T08:12:07.328Z,1.60
2019-03-04T08:14:36.880Z,2.13
2019-03-04T08:17:07.059Z,2.90
2019-03-04T08:19:37.313Z,2.73
2019-03-04T08:22:06.704Z,2.47
2019-03-04T08:24:35.470Z,2.43
2019-03-04T08:27:04.885Z,2.70
2019-03-04T08:29:33.804Z,2.80
2019-03-04T08:32:02.613Z,2.50
2019-03-04T08:34:31.536Z,3.00
2019-03-04T08:37:00.225Z,2.80
2019-03-04T08:39:29.909Z,2.50
2019-03-04T08:42:00.042Z,2.30
2019-03-04T08:44:31.002Z,3.20
2019-03-04T08:46:58.900Z,2.07
2019-03-04T08:49:27.679Z,2.83
2019-03-04T08:51:56.970Z,3.63
2019-03-04T08:54:25.777Z,2.33
2019-03-04T08:57:03.707Z,3.17
2019-03-04T08:59:23.396Z,2.47
2019-03-04T09:01:52.258Z,2.40
2019-03-04T09:04:21.127Z,2.07
2019-03-04T09:06:49.992Z,1.70
2019-03-04T09:09:18.860Z,1.97
2019-03-04T09:11:47.634Z,2.03
2019-03-04T09:14:17.087Z,1.30
2019-03-04T09:16:45.942Z,1.40
2019-03-04T09:19:15.937Z,1.17
2019-03-04T09:21:45.447Z,0.90
2019-03-04T09:24:14.227Z,0.83
2019-03-04T09:26:43.662Z,1.83
2019-03-04T09:29:13.699Z,1.03
2019-03-04T09:31:42.510Z,1.10
2019-03-04T09:34:11.300Z,0.83
2019-03-04T09:36:40.637Z,0.83
2019-03-04T09:39:09.435Z,0.90
2019-03-04T09:41:39.949Z,0.90
2019-03-04T09:44:09.825Z,1.00
2019-03-04T09:46:39.896Z,1.30
2019-03-04T09:49:10.461Z,0.90
2019-03-04T09:51:39.254Z,1.20
2019-03-04T09:54:09.280Z,1.10
2019-03-04T09:56:38.235Z,1.03
2019-03-04T09:59:07.003Z,1.43
2019-03-04T10:01:44.676Z,1.13
2019-03-04T10:04:23.818Z,1.17
2019-03-04T10:07:34.793Z,1.80
2019-03-04T10:10:21.103Z,3.30
2019-03-04T10:12:59.084Z,0.80
2019-03-04T10:15:42.814Z,1.00
2019-03-04T10:18:24.726Z,0.80
2019-03-04T10:21:13.172Z,1.00
2019-03-04T10:23:56.927Z,0.77
2019-03-04T10:26:35.460Z,0.87
2019-03-04T10:29:31.178Z,0.80
2019-03-04T10:32:17.572Z,1.30
2019-03-04T10:35:07.570Z,0.80
2019-03-04T10:37:54.510Z,1.10
2019-03-04T10:40:40.853Z,2.40
2019-03-04T10:43:38.763Z,1.50
2019-03-04T10:46:46.687Z,1.97
2019-03-04T10:49:16.135Z,1.60
2019-03-04T10:51:45.224Z,1.40
2019-03-04T10:54:14.311Z,1.57
2019-03-04T10:56:43.747Z,1.63
2019-03-04T10:59:12.560Z,1.87
2019-03-04T11:01:41.351Z,2.30
2019-03-04T11:04:10.281Z,2.27
2019-03-04T11:06:39.257Z,1.83
2019-03-04T11:09:08.695Z,1.97
2019-03-04T11:11:37.549Z,2.37
2019-03-04T11:14:07.069Z,1.87
2019-03-04T11:16:35.997Z,2.17
2019-03-04T11:19:05.416Z,2.30
2019-03-04T11:21:34.713Z,2.57
2019-03-04T11:24:04.261Z,2.20
2019-03-04T11:26:33.831Z,3.43
2019-03-04T11:29:03.204Z,2.30
2019-03-04T11:31:32.185Z,2.30
2019-03-04T11:34:01.003Z,3.40
2019-03-04T11:36:29.763Z,3.10
2019-03-04T11:39:04.735Z,2.30
2019-03-04T11:41:33.509Z,2.30
2019-03-04T11:44:03.152Z,2.27
2019-03-04T11:46:35.118Z,2.93
2019-03-04T11:49:03.931Z,2.20
2019-03-04T11:51:34.335Z,2.67
2019-03-04T11:54:03.142Z,2.23
2019-03-04T11:56:31.925Z,2.93
2019-03-04T11:59:00.790Z,2.10
2019-03-04T12:01:34.432Z,2.60
2019-03-04T12:04:03.229Z,2.90
2019-03-04T12:06:32.107Z,2.93
2019-03-04T12:09:01.994Z,3.00
2019-03-04T12:11:37.933Z,3.10
2019-03-04T12:14:03.169Z,2.83
2019-03-04T12:16:30.251Z,2.50
2019-03-04T12:18:59.134Z,2.73
2019-03-04T12:21:34.782Z,2.20
2019-03-04T12:24:04.390Z,2.70
2019-03-04T12:26:33.870Z,3.20
2019-03-04T12:29:02.959Z,3.00
2019-03-04T12:31:38.615Z,3.10
2019-03-04T12:34:08.103Z,3.50
2019-03-04T12:36:38.855Z,3.13
2019-03-04T12:39:08.414Z,6.50
2019-03-04T12:41:37.244Z,4.00
2019-03-04T12:44:06.026Z,3.43
2019-03-04T12:46:35.092Z,3.07
2019-03-04T12:49:03.894Z,3.23
2019-03-04T12:51:36.742Z,2.87
2019-03-04T12:54:06.778Z,3.73
2019-03-04T12:56:35.624Z,3.30
2019-03-04T12:59:04.439Z,3.20
2019-03-04T13:01:34.150Z,3.43
2019-03-04T13:04:03.484Z,3.50
2019-03-04T13:06:32.764Z,2.77
2019-03-04T13:09:01.527Z,3.13
2019-03-04T13:11:30.952Z,3.10
2019-03-04T13:13:59.781Z,2.63
2019-03-04T13:16:29.240Z,3.53
2019-03-04T13:18:58.747Z,2.80
2019-03-04T13:21:27.582Z,3.60
2019-03-04T13:23:56.981Z,3.10
2019-03-04T13:26:26.626Z,3.23
2019-03-04T13:28:56.102Z,3.00
2019-03-04T13:31:24.858Z,3.40
2019-03-04T13:33:54.542Z,3.63
2019-03-04T13:36:23.394Z,3.37
2019-03-04T13:38:53.218Z,2.77
2019-03-04T13:41:22.207Z,3.37
2019-03-04T13:43:51.762Z,3.60
2019-03-04T13:46:20.575Z,4.03
2019-03-04T13:48:50.486Z,4.00
2019-03-04T13:51:20.054Z,4.17
2019-03-04T13:53:49.118Z,3.13
2019-03-04T13:56:17.913Z,2.73
2019-03-04T13:58:47.311Z,3.60
2019-03-04T14:01:16.159Z,2.90
2019-03-04T14:03:45.910Z,2.77
2019-03-04T14:06:16.001Z,2.40
2019-03-04T14:08:44.766Z,2.83
2019-03-04T14:11:14.126Z,2.50
2019-03-04T14:13:42.959Z,2.53
2019-03-04T14:16:13.430Z,2.30
2019-03-04T14:18:42.179Z,2.60
2019-03-04T14:21:11.089Z,3.27
2019-03-04T14:23:40.270Z,2.53
2019-03-04T14:26:09.068Z,2.10
2019-03-04T14:28:38.973Z,2.30
2019-03-04T14:31:07.758Z,2.20
2019-03-04T14:33:37.148Z,2.67
2019-03-04T14:36:06.784Z,2.23
2019-03-04T14:38:35.624Z,2.57
2019-03-04T14:41:04.962Z,2.67
2019-03-04T14:43:33.808Z,2.23
2019-03-04T14:46:03.420Z,2.80
2019-03-04T14:48:32.902Z,3.40
2019-03-04T14:51:01.834Z,4.17
2019-03-04T14:53:30.723Z,4.10
2019-03-04T14:56:01.197Z,3.07
2019-03-04T14:58:28.442Z,2.07
2019-03-04T15:00:58.517Z,3.03
2019-03-04T15:03:27.669Z,2.17
2019-03-04T15:06:06.274Z,2.07
2019-03-04T15:08:25.233Z,2.50
2019-03-04T15:10:54.101Z,2.70
2019-03-04T15:13:22.903Z,2.77
2019-03-04T15:16:00.792Z,2.57
2019-03-04T15:18:20.655Z,2.30
2019-03-04T15:20:49.476Z,2.53
2019-03-04T15:23:18.828Z,3.10
2019-03-04T15:25:47.619Z,2.53
2019-03-04T15:28:18.283Z,2.40
2019-03-04T15:30:48.919Z,2.40
2019-03-04T15:33:19.146Z,2.37
2019-03-04T15:35:49.847Z,2.97
2019-03-04T15:38:19.408Z,2.20
2019-03-04T15:40:48.940Z,1.83
2019-03-04T15:43:18.432Z,3.07
2019-03-04T15:45:48.490Z,3.20
2019-03-04T15:48:18.534Z,2.87
2019-03-04T15:50:47.310Z,3.63
2019-03-04T15:53:16.098Z,3.57
2019-03-04T15:55:44.925Z,2.83
2019-03-04T15:58:13.891Z,2.60
2019-03-04T16:00:43.386Z,3.20
2019-03-04T16:03:12.167Z,2.47
2019-03-04T16:05:41.075Z,2.80
2019-03-04T16:08:10.044Z,2.50
2019-03-04T16:10:39.549Z,3.10
2019-03-04T16:13:08.704Z,2.70
2019-03-04T16:15:39.344Z,2.83
2019-03-04T16:18:08.791Z,2.80
2019-03-04T16:20:37.676Z,2.60
2019-03-04T16:23:07.043Z,2.60
2019-03-04T16:25:35.900Z,2.53
2019-03-04T16:28:09.359Z,3.00
2019-03-04T16:30:39.300Z,3.13
2019-03-04T16:33:09.491Z,2.90
2019-03-04T16:35:38.876Z,3.13
2019-03-04T16:38:07.680Z,3.13
2019-03-04T16:40:37.240Z,2.53
2019-03-04T16:43:06.037Z,2.93
2019-03-04T16:45:34.870Z,2.57
2019-03-04T16:48:07.437Z,3.50
2019-03-04T16:50:36.328Z,2.67
2019-03-04T16:53:07.628Z,3.23
2019-03-04T16:55:37.131Z,2.97
2019-03-04T16:58:06.044Z,3.00
2019-03-04T17:00:34.832Z,3.17
2019-03-04T17:03:03.687Z,4.47
2019-03-04T17:05:33.162Z,2.90
2019-03-04T17:08:02.013Z,2.57
2019-03-04T17:10:31.435Z,2.90
2019-03-04T17:13:00.883Z,3.00
2019-03-04T17:15:30.469Z,2.00
2019-03-04T17:18:00.225Z,2.30
2019-03-04T17:20:29.071Z,2.67
2019-03-04T17:22:58.494Z,2.60
2019-03-04T17:25:28.937Z,2.20
2019-03-04T17:28:03.667Z,1.70
2019-03-04T17:30:32.516Z,2.00
2019-03-04T17:33:01.395Z,2.40
2019-03-04T17:35:31.175Z,2.60
2019-03-04T17:38:00.091Z,4.63
2019-03-04T17:40:29.007Z,4.23
2019-03-04T17:42:57.786Z,4.17
2019-03-04T17:45:26.855Z,6.00
2019-03-04T17:47:55.640Z,11.73
2019-03-04T17:50:28.955Z,4.13
2019-03-04T17:52:57.777Z,4.33
2019-03-04T17:55:26.591Z,3.83
2019-03-04T17:57:55.418Z,4.00
2019-03-04T18:00:24.783Z,4.73
2019-03-04T18:02:53.579Z,3.87
2019-03-04T18:05:23.460Z,3.17
2019-03-04T18:07:53.015Z,3.40
2019-03-04T18:10:21.855Z,4.30
2019-03-04T18:12:53.356Z,4.83
2019-03-04T18:15:22.955Z,5.70
2019-03-04T18:17:51.751Z,4.60
2019-03-04T18:20:21.156Z,6.33
2019-03-04T18:22:49.970Z,5.20
2019-03-04T18:25:24.325Z,4.33
2019-03-04T18:27:56.926Z,4.33
2019-03-04T18:30:44.938Z,3.00
2019-03-04T18:33:30.811Z,2.57
2019-03-04T18:36:42.348Z,3.07
2019-03-04T18:39:29.214Z,3.03
2019-03-04T18:42:07.216Z,4.03
2019-03-04T18:44:46.907Z,3.37
2019-03-04T18:47:39.839Z,4.57
2019-03-04T18:50:08.683Z,5.43
2019-03-04T18:52:37.535Z,3.97
2019-03-04T18:55:08.311Z,3.40
2019-03-04T18:57:37.179Z,4.40
2019-03-04T19:00:11.169Z,3.93
2019-03-04T19:02:41.282Z,4.77
2019-03-04T19:05:10.818Z,4.70
2019-03-04T19:07:39.816Z,3.40
2019-03-04T19:10:09.070Z,3.80
2019-03-04T19:12:39.081Z,5.37
2019-03-04T19:15:09.919Z,4.80
2019-03-04T19:17:38.785Z,3.97
2019-03-04T19:20:10.186Z,3.63
2019-03-04T19:22:39.004Z,7.50
2019-03-04T19:25:08.596Z,4.30
2019-03-04T19:27:37.408Z,6.47
2019-03-04T19:30:06.871Z,5.80
2019-03-04T19:32:35.740Z,3.47
2019-03-04T19:35:05.156Z,3.17
2019-03-04T19:37:33.939Z,3.53
2019-03-04T19:40:06.204Z,2.40
2019-03-04T19:42:32.957Z,3.00
2019-03-04T19:45:01.842Z,2.80
2019-03-04T19:47:30.704Z,2.57
2019-03-04T19:49:59.505Z,2.60
2019-03-04T19:52:29.219Z,3.33
2019-03-04T19:54:58.926Z,2.67
2019-03-04T19:57:30.756Z,2.27
2019-03-04T19:59:59.541Z,2.43
2019-03-04T20:02:28.643Z,2.10
2019-03-04T20:04:58.102Z,1.90
2019-03-04T20:07:27.900Z,1.80
2019-03-04T20:09:57.330Z,1.67
2019-03-04T20:12:27.996Z,2.00
2019-03-04T20:14:56.560Z,1.97
2019-03-04T20:17:25.578Z,1.63
2019-03-04T20:19:55.313Z,2.07
2019-03-04T20:22:24.135Z,1.47
2019-03-04T20:24:52.940Z,1.80
2019-03-04T20:27:24.539Z,2.80
2019-03-04T20:29:53.390Z,2.30
2019-03-04T20:32:22.192Z,2.77
2019-03-04T20:34:52.545Z,1.83
2019-03-04T20:37:21.308Z,3.07
2019-03-04T20:39:50.630Z,3.83
2019-03-04T20:42:20.194Z,4.10
2019-03-04T20:44:49.003Z,3.50
2019-03-04T20:47:19.306Z,2.47
2019-03-04T20:49:48.103Z,3.10
2019-03-04T20:52:16.886Z,3.47
2019-03-04T20:54:45.806Z,3.37
2019-03-04T20:57:15.184Z,2.90
2019-03-04T20:59:43.959Z,3.43
2019-03-04T21:02:12.813Z,4.43
2019-03-04T21:04:41.595Z,3.20
2019-03-04T21:07:11.248Z,3.93
2019-03-04T21:09:40.654Z,3.87
2019-03-04T21:12:10.867Z,3.90
2019-03-04T21:14:40.818Z,3.57
2019-03-04T21:17:10.638Z,3.00
2019-03-04T21:19:40.555Z,2.90
2019-03-04T21:22:09.359Z,3.07
2019-03-04T21:24:38.740Z,3.43
2019-03-04T21:27:07.550Z,3.17
2019-03-04T21:30:00.003Z,3.20
2019-03-04T21:32:40.186Z,3.60
2019-03-04T21:35:26.898Z,3.90
2019-03-04T21:37:56.830Z,3.83
2019-03-04T21:40:38.243Z,4.20
2019-03-04T21:43:15.820Z,4.70
2019-03-04T21:46:07.438Z,4.80
2019-03-04T21:48:42.417Z,4.40
2019-03-04T21:51:25.919Z,5.00
2019-03-04T21:53:54.978Z,4.63
2019-03-04T21:56:35.122Z,4.87
2019-03-04T21:59:04.694Z,4.67
2019-03-04T22:01:39.310Z,4.63
2019-03-04T22:04:09.410Z,5.60
2019-03-04T22:06:38.389Z,4.23
2019-03-04T22:09:07.520Z,4.20
2019-03-04T22:11:36.531Z,4.40
2019-03-04T22:14:06.368Z,4.83
2019-03-04T22:16:35.786Z,3.83
2019-03-04T22:19:06.214Z,3.57
2019-03-04T22:21:35.001Z,3.17
2019-03-04T22:24:04.679Z,3.50
2019-03-04T22:26:34.191Z,4.30
2019-03-04T22:29:03.720Z,2.80
2019-03-04T22:31:32.518Z,3.00
2019-03-04T22:34:01.291Z,3.80
2019-03-04T22:36:30.085Z,2.93
2019-03-04T22:38:58.888Z,3.90
2019-03-04T22:41:27.761Z,2.87
2019-03-04T22:43:57.310Z,3.10
2019-03-04T22:46:26.993Z,3.83
2019-03-04T22:48:56.390Z,2.60
2019-03-04T22:51:25.173Z,3.33
2019-03-04T22:53:54.808Z,3.17
2019-03-04T22:56:24.845Z,3.50
2019-03-04T22:58:53.630Z,3.60
2019-03-04T23:01:30.674Z,3.40
2019-03-04T23:04:05.579Z,3.23
2019-03-04T23:06:35.706Z,3.23
2019-03-04T23:09:07.445Z,9.00
2019-03-04T23:11:36.292Z,3.57
2019-03-04T23:14:12.692Z,3.83
2019-03-04T23:16:41.492Z,3.67
2019-03-04T23:19:11.711Z,3.33
2019-03-04T23:21:40.500Z,4.30
2019-03-04T23:24:09.994Z,4.20
2019-03-04T23:26:40.019Z,4.50
2019-03-04T23:29:08.762Z,3.87
2019-03-04T23:31:37.600Z,3.93
2019-03-04T23:34:06.386Z,3.80
2019-03-04T23:36:35.391Z,3.53
2019-03-04T23:39:05.563Z,3.10
2019-03-04T23:41:37.024Z,3.37
2019-03-04T23:44:06.816Z,3.80
2019-03-04T23:46:36.407Z,4.00
2019-03-04T23:49:05.812Z,4.47
2019-03-04T23:51:35.751Z,3.40
2019-03-04T23:54:05.612Z,4.30
2019-03-04T23:56:35.933Z,3.80
2019-03-04T23:59:04.723Z,4.03
